Time;durP1;ratioP1;P1;durP2;ratioP2;P2;SDS_P1;SDS_P2;PMS_P1;PMS_P2;Temp;Humidity;BMP_temperature;BMP_pressure;BME280_temperature;BME280_humidity;BME280_pressure;Samples;Min_cycle;Max_cycle;Signal;HPM_P1;HPM_P2
2023/04/11 00:02:03;;;;;;;6.30;2.05;;;8.80;99.90;;;;;;5073409;28;20050;-79
2023/04/11 00:04:29;;;;;;;8.48;2.65;;;8.80;99.90;;;;;;5073228;28;20060;-80
2023/04/11 00:06:56;;;;;;;6.50;2.30;;;8.70;99.90;;;;;;5074028;28;20133;-80
2023/04/11 00:09:21;;;;;;;3.45;2.03;;;8.60;99.90;;;;;;5072288;28;20071;-81
2023/04/11 00:11:47;;;;;;;4.38;2.08;;;8.60;99.90;;;;;;5073722;28;20045;-81
2023/04/11 00:14:14;;;;;;;3.90;2.03;;;8.60;99.90;;;;;;5073720;28;20475;-83
2023/04/11 00:16:40;;;;;;;3.05;1.60;;;8.60;99.90;;;;;;5073022;28;20458;-82
2023/04/11 00:19:08;;;;;;;5.15;1.85;;;8.60;99.90;;;;;;5074195;28;20097;-81
2023/04/11 00:21:38;;;;;;;10.52;2.63;;;8.60;99.90;;;;;;5090843;28;20049;-81
2023/04/11 00:24:06;;;;;;;2.63;1.90;;;8.60;99.90;;;;;;5073126;28;20517;-81
2023/04/11 00:26:32;;;;;;;2.70;1.75;;;8.50;99.90;;;;;;5073294;28;20135;-81
2023/04/11 00:28:57;;;;;;;4.38;1.85;;;8.50;99.90;;;;;;5073036;28;20452;-81
2023/04/11 00:31:23;;;;;;;6.78;2.22;;;8.50;99.90;;;;;;5073075;28;20045;-81
2023/04/11 00:33:49;;;;;;;6.22;2.20;;;8.40;99.90;;;;;;5073041;28;20063;-81
2023/04/11 00:36:15;;;;;;;5.57;2.63;;;8.40;99.90;;;;;;5072633;28;20040;-82
2023/04/11 00:38:41;;;;;;;7.13;2.10;;;8.30;99.90;;;;;;5072270;28;20052;-82
2023/04/11 00:41:07;;;;;;;2.78;1.90;;;8.20;99.90;;;;;;5072954;28;20120;-82
2023/04/11 00:43:33;;;;;;;4.70;2.08;;;8.20;99.90;;;;;;5072940;28;20036;-83
2023/04/11 00:45:59;;;;;;;7.80;2.80;;;8.20;99.90;;;;;;5072968;28;20082;-82
2023/04/11 00:48:27;;;;;;;7.03;2.35;;;8.10;99.90;;;;;;5072848;28;20052;-82
2023/04/11 00:50:54;;;;;;;6.22;2.60;;;7.20;99.90;;;;;;5072929;28;20120;-84
2023/04/11 00:53:21;;;;;;;5.15;2.20;;;8.00;99.90;;;;;;5073261;28;20050;-82
2023/04/11 00:55:47;;;;;;;4.43;2.42;;;8.00;99.90;;;;;;5072730;28;20044;-82
2023/04/11 00:58:15;;;;;;;6.25;2.40;;;8.00;99.90;;;;;;5071851;28;20093;-83
2023/04/11 01:00:41;;;;;;;5.75;2.58;;;7.90;99.90;;;;;;5072864;28;20052;-82
2023/04/11 01:03:07;;;;;;;7.22;2.88;;;8.00;99.90;;;;;;5072567;28;20084;-83
2023/04/11 01:05:34;;;;;;;5.97;2.35;;;8.00;99.90;;;;;;5073154;28;20068;-83
2023/04/11 01:08:01;;;;;;;7.50;2.33;;;8.00;99.90;;;;;;5072291;28;20513;-81
2023/04/11 01:10:29;;;;;;;5.88;2.47;;;8.00;99.90;;;;;;5072884;28;20052;-78
2023/04/11 01:12:58;;;;;;;4.35;2.55;;;8.00;99.90;;;;;;5082384;28;20208;-79
2023/04/11 01:15:24;;;;;;;8.50;2.45;;;8.00;99.90;;;;;;5085921;28;20052;-80
2023/04/11 01:17:51;;;;;;;7.05;2.88;;;7.90;99.90;;;;;;5086018;28;20044;-81
2023/04/11 01:20:18;;;;;;;7.22;2.30;;;7.90;99.90;;;;;;5086526;28;20080;-79
2023/04/11 01:22:46;;;;;;;7.63;2.55;;;7.90;99.90;;;;;;5077873;28;20091;-82
2023/04/11 01:25:13;;;;;;;5.43;2.53;;;7.80;99.90;;;;;;5073662;28;20052;-82
2023/04/11 01:27:41;;;;;;;7.18;3.15;;;7.80;99.90;;;;;;5073310;28;20078;-80
2023/04/11 01:30:07;;;;;;;8.07;2.70;;;7.80;99.90;;;;;;5073125;28;20052;-81
2023/04/11 01:32:33;;;;;;;7.30;2.92;;;7.80;99.90;;;;;;5072663;28;20094;-81
2023/04/11 01:35:00;;;;;;;6.03;2.75;;;7.70;99.90;;;;;;5072512;28;20124;-81
2023/04/11 01:37:25;;;;;;;6.00;3.20;;;7.70;99.90;;;;;;5071618;28;20052;-82
2023/04/11 01:39:51;;;;;;;5.35;2.42;;;7.60;99.90;;;;;;5072494;28;20055;-82
2023/04/11 01:42:18;;;;;;;10.57;2.85;;;7.70;99.90;;;;;;5072227;28;20050;-78
2023/04/11 01:44:44;;;;;;;5.10;2.63;;;7.60;99.90;;;;;;5071595;28;20048;-82
2023/04/11 01:47:10;;;;;;;5.25;2.80;;;7.50;99.90;;;;;;5087603;28;20105;-82
2023/04/11 01:49:36;;;;;;;8.75;2.80;;;7.60;99.90;;;;;;5072854;28;20048;-80
2023/04/11 01:52:02;;;;;;;6.72;3.00;;;7.50;99.90;;;;;;5072186;28;20048;-81
2023/04/11 01:54:28;;;;;;;6.85;2.88;;;7.50;99.90;;;;;;5071245;28;20230;-82
2023/04/11 01:56:53;;;;;;;5.93;2.22;;;7.60;99.90;;;;;;5072277;28;20052;-80
2023/04/11 01:59:19;;;;;;;5.95;2.85;;;7.50;99.90;;;;;;5070944;28;20080;-80
2023/04/11 02:01:45;;;;;;;8.77;2.72;;;7.60;99.90;;;;;;5087960;28;20084;-78
2023/04/11 02:04:11;;;;;;;5.28;2.70;;;7.70;99.90;;;;;;5070214;28;20041;-81
2023/04/11 02:06:37;;;;;;;7.80;2.90;;;7.70;99.90;;;;;;5072367;28;20050;-82
2023/04/11 02:09:03;;;;;;;8.35;3.00;;;7.80;99.90;;;;;;5072261;28;20048;-82
2023/04/11 02:11:29;;;;;;;7.70;2.95;;;7.80;99.90;;;;;;5072298;28;20045;-82
2023/04/11 02:13:55;;;;;;;6.50;2.58;;;7.80;99.90;;;;;;5072114;28;20048;-81
2023/04/11 02:16:24;;;;;;;7.72;2.92;;;7.90;99.90;;;;;;5071908;28;20045;-82
2023/04/11 02:18:51;;;;;;;6.68;3.08;;;7.80;99.90;;;;;;5072327;28;20052;-82
2023/04/11 02:21:17;;;;;;;6.47;3.10;;;7.90;99.90;;;;;;5071864;28;20051;-82
2023/04/11 02:23:42;;;;;;;7.65;2.70;;;7.90;99.90;;;;;;5072227;28;20060;-82
2023/04/11 02:26:08;;;;;;;6.07;2.85;;;7.90;99.90;;;;;;5072189;28;20040;-81
2023/04/11 02:28:35;;;;;;;5.30;2.47;;;7.90;99.90;;;;;;5075495;28;20519;-82
2023/04/11 02:31:02;;;;;;;6.15;2.13;;;7.90;99.90;;;;;;5075776;28;20122;-82
2023/04/11 02:33:28;;;;;;;6.40;2.30;;;8.00;99.90;;;;;;5075460;28;20061;-83
2023/04/11 02:35:53;;;;;;;4.25;2.15;;;8.00;99.90;;;;;;5075402;28;20549;-82
2023/04/11 02:38:19;;;;;;;7.70;3.15;;;8.00;99.90;;;;;;5075435;28;20082;-83
2023/04/11 02:40:45;;;;;;;6.13;2.30;;;8.00;99.90;;;;;;5075343;28;20128;-81
2023/04/11 02:43:11;;;;;;;7.00;2.00;;;7.90;99.90;;;;;;5074176;28;20434;-79
2023/04/11 02:45:37;;;;;;;4.93;2.30;;;7.90;99.90;;;;;;5075030;28;20446;-83
2023/04/11 02:48:03;;;;;;;5.57;2.30;;;7.90;99.90;;;;;;5075537;28;20048;-80
2023/04/11 02:50:29;;;;;;;6.82;2.33;;;7.90;99.90;;;;;;5075454;28;20055;-80
2023/04/11 02:52:55;;;;;;;4.35;1.73;;;7.90;99.90;;;;;;5074702;28;20499;-79
2023/04/11 02:55:24;;;;;;;3.50;2.05;;;7.90;99.90;;;;;;5074074;28;20056;-81
2023/04/11 02:57:50;;;;;;;4.95;1.95;;;7.80;99.90;;;;;;5075352;28;20044;-79
2023/04/11 03:00:18;;;;;;;4.97;1.52;;;7.90;99.90;;;;;;5074599;28;20056;-81
2023/04/11 03:02:43;;;;;;;6.53;1.30;;;7.90;99.90;;;;;;5074991;28;20494;-82
2023/04/11 03:05:09;;;;;;;3.08;1.70;;;7.80;99.90;;;;;;5075146;28;20048;-81
2023/04/11 03:07:37;;;;;;;4.35;1.42;;;7.90;99.90;;;;;;5074080;28;20516;-80
2023/04/11 03:10:03;;;;;;;1.85;1.48;;;7.80;99.90;;;;;;5073717;28;20452;-81
2023/04/11 03:12:29;;;;;;;5.15;1.40;;;7.80;99.90;;;;;;5075078;28;20037;-80
2023/04/11 03:14:55;;;;;;;3.08;1.60;;;7.80;99.90;;;;;;5075097;28;20040;-81
2023/04/11 03:17:20;;;;;;;2.55;2.10;;;7.80;99.90;;;;;;5074524;28;20045;-81
2023/04/11 03:19:46;;;;;;;2.90;1.55;;;7.80;99.90;;;;;;5074588;28;20097;-82
2023/04/11 03:22:12;;;;;;;4.78;1.42;;;7.80;99.90;;;;;;5090106;28;20048;-82
2023/04/11 03:24:41;;;;;;;2.10;1.23;;;7.80;99.90;;;;;;5074502;28;20040;-82
2023/04/11 03:27:07;;;;;;;5.78;1.75;;;7.80;99.90;;;;;;5074517;28;20143;-82
2023/04/11 03:29:32;;;;;;;3.58;1.60;;;7.80;99.90;;;;;;5074829;28;20080;-82
2023/04/11 03:31:59;;;;;;;3.08;1.38;;;7.80;99.90;;;;;;5074245;28;20088;-82
2023/04/11 03:34:25;;;;;;;2.45;1.50;;;7.70;99.90;;;;;;5074384;28;20044;-83
2023/04/11 03:36:51;;;;;;;5.10;1.80;;;7.80;99.90;;;;;;5074208;28;20080;-83
2023/04/11 03:39:18;;;;;;;3.80;1.67;;;7.80;99.90;;;;;;5073104;28;20115;-82
2023/04/11 03:41:44;;;;;;;1.67;1.40;;;7.70;99.90;;;;;;5073983;28;20526;-83
2023/04/11 03:44:10;;;;;;;6.25;1.98;;;7.70;99.90;;;;;;5074514;28;20033;-82
2023/04/11 03:46:35;;;;;;;5.53;2.28;;;7.80;99.90;;;;;;5073974;28;20131;-84
2023/04/11 03:49:01;;;;;;;4.95;1.88;;;7.80;99.90;;;;;;5089891;28;20044;-83
2023/04/11 03:51:27;;;;;;;2.15;1.60;;;7.80;99.90;;;;;;5074406;28;20087;-84
2023/04/11 03:53:52;;;;;;;5.22;1.85;;;7.80;99.90;;;;;;5073974;28;20040;-83
2023/04/11 03:56:18;;;;;;;5.53;3.38;;;7.80;99.90;;;;;;5074217;28;20048;-82
2023/04/11 03:58:44;;;;;;;4.95;2.47;;;7.90;99.90;;;;;;5073744;28;20157;-82
2023/04/11 04:01:09;;;;;;;5.57;2.42;;;7.90;99.90;;;;;;5073721;28;20052;-83
2023/04/11 04:03:35;;;;;;;5.70;2.50;;;7.90;99.90;;;;;;5073577;28;20044;-82
2023/04/11 04:06:01;;;;;;;7.72;2.85;;;7.80;99.90;;;;;;5073718;28;20080;-83
2023/04/11 04:08:26;;;;;;;10.60;2.35;;;7.80;99.90;;;;;;5089861;28;20361;-83
2023/04/11 04:10:52;;;;;;;5.35;2.17;;;7.90;99.90;;;;;;5073743;28;20531;-80
2023/04/11 04:13:18;;;;;;;5.97;2.40;;;7.90;99.90;;;;;;5073468;28;20109;-83
2023/04/11 04:15:43;;;;;;;5.88;2.35;;;7.90;99.90;;;;;;5073509;28;20040;-80
2023/04/11 04:18:09;;;;;;;8.95;3.55;;;7.90;99.90;;;;;;5073126;28;20048;-79
2023/04/11 04:20:34;;;;;;;9.05;3.17;;;7.90;99.90;;;;;;5089692;28;20040;-82
2023/04/11 04:23:03;;;;;;;11.05;3.58;;;7.90;99.90;;;;;;5072501;28;20493;-83
2023/04/11 04:25:29;;;;;;;7.68;2.75;;;7.90;99.90;;;;;;5074273;28;20048;-81
2023/04/11 04:27:56;;;;;;;6.40;3.15;;;7.90;99.90;;;;;;5089223;28;20081;-80
2023/04/11 04:30:22;;;;;;;6.57;2.95;;;7.90;99.90;;;;;;5090430;28;20503;-81
2023/04/11 04:32:53;;;;;;;9.27;2.65;;;7.90;99.90;;;;;;5088542;28;20044;-80
2023/04/11 04:35:19;;;;;;;9.55;3.25;;;8.00;99.90;;;;;;5085538;28;20080;-79
2023/04/11 04:37:45;;;;;;;8.07;3.40;;;8.00;99.90;;;;;;5072532;28;20052;-84
2023/04/11 04:40:12;;;;;;;7.07;3.00;;;8.00;99.90;;;;;;5073173;28;20059;-80
2023/04/11 04:42:40;;;;;;;7.45;3.70;;;8.00;99.90;;;;;;5072045;28;20119;-83
2023/04/11 04:45:07;;;;;;;7.38;3.30;;;7.90;99.90;;;;;;5072892;28;20123;-83
2023/04/11 04:47:35;;;;;;;6.60;3.08;;;8.00;99.90;;;;;;5072385;28;20417;-85
2023/04/11 04:50:01;;;;;;;7.15;3.08;;;8.00;99.90;;;;;;5072364;28;20135;-84
2023/04/11 04:52:28;;;;;;;8.70;3.63;;;8.00;99.90;;;;;;5072909;28;20044;-81
2023/04/11 04:54:58;;;;;;;12.80;4.57;;;8.00;99.90;;;;;;5072483;28;20124;-84
2023/04/11 04:57:28;;;;;;;9.13;5.05;;;8.00;99.90;;;;;;5072525;28;20509;-82
2023/04/11 04:59:54;;;;;;;9.35;5.10;;;8.00;99.90;;;;;;5072771;28;20048;-82
2023/04/11 05:02:20;;;;;;;8.80;4.07;;;8.10;99.90;;;;;;5073704;28;20040;-85
2023/04/11 05:04:49;;;;;;;8.55;3.72;;;8.10;99.90;;;;;;5088945;28;20162;-79
2023/04/11 05:07:15;;;;;;;8.52;3.55;;;8.10;99.90;;;;;;5071537;28;20420;-80
2023/04/11 05:09:41;;;;;;;7.95;3.72;;;8.10;99.90;;;;;;5072089;28;20135;-82
2023/04/11 05:12:07;;;;;;;13.02;4.03;;;8.10;99.90;;;;;;5072657;28;20432;-81
2023/04/11 05:14:33;;;;;;;14.95;3.53;;;8.10;99.90;;;;;;5072162;28;20051;-85
2023/04/11 05:16:59;;;;;;;6.25;3.92;;;8.10;99.90;;;;;;5072595;28;20418;-82
2023/04/11 05:19:24;;;;;;;7.38;3.63;;;8.10;99.90;;;;;;5072807;28;20055;-82
2023/04/11 05:21:50;;;;;;;7.60;3.35;;;8.00;99.90;;;;;;5071690;28;20116;-79
2023/04/11 05:24:16;;;;;;;9.88;3.63;;;8.10;99.90;;;;;;5072349;28;20040;-84
2023/04/11 05:26:41;;;;;;;7.55;4.25;;;8.10;99.90;;;;;;5071545;28;20059;-79
2023/04/11 05:29:07;;;;;;;8.68;3.58;;;8.10;99.90;;;;;;5087809;28;20044;-82
2023/04/11 05:31:33;;;;;;;9.40;3.70;;;8.10;99.90;;;;;;5070882;28;20495;-85
2023/04/11 05:33:59;;;;;;;4.68;3.38;;;8.10;99.90;;;;;;5071969;28;20041;-81
2023/04/11 05:36:25;;;;;;;7.82;3.95;;;8.10;99.90;;;;;;5071988;28;20450;-85
2023/04/11 05:38:51;;;;;;;7.35;3.65;;;8.10;99.90;;;;;;5071933;28;20045;-82
2023/04/11 05:41:16;;;;;;;5.70;3.10;;;8.10;99.90;;;;;;5072272;28;20068;-79
2023/04/11 05:43:42;;;;;;;8.93;3.17;;;8.10;99.90;;;;;;5072018;28;20499;-82
2023/04/11 05:46:08;;;;;;;6.90;3.40;;;8.10;99.90;;;;;;5072294;28;20056;-81
2023/04/11 05:48:34;;;;;;;11.18;3.90;;;8.10;99.90;;;;;;5072020;28;20076;-82
2023/04/11 05:51:00;;;;;;;10.02;3.58;;;8.10;99.90;;;;;;5071687;28;20055;-82
2023/04/11 05:53:27;;;;;;;9.65;3.78;;;8.10;99.90;;;;;;5070599;28;20417;-80
2023/04/11 05:55:53;;;;;;;6.10;3.63;;;8.10;99.90;;;;;;5071876;28;20045;-82
2023/04/11 05:58:19;;;;;;;9.32;3.60;;;8.20;99.90;;;;;;5072070;28;20051;-81
2023/04/11 06:00:45;;;;;;;6.35;3.25;;;8.10;99.90;;;;;;5071869;28;20048;-82
2023/04/11 06:03:11;;;;;;;7.38;3.67;;;8.20;99.90;;;;;;5091596;28;20056;-78
2023/04/11 06:05:37;;;;;;;9.02;3.25;;;8.10;99.90;;;;;;5075935;28;20045;-82
2023/04/11 06:08:05;;;;;;;8.52;4.38;;;8.20;99.90;;;;;;5075750;28;20514;-82
2023/04/11 06:10:31;;;;;;;9.18;3.53;;;8.20;99.90;;;;;;5075903;28;20063;-80
2023/04/11 06:12:57;;;;;;;9.18;3.20;;;8.30;99.90;;;;;;5076243;28;20131;-83
2023/04/11 06:15:25;;;;;;;8.93;3.17;;;8.30;99.90;;;;;;5075619;28;20044;-83
2023/04/11 06:17:51;;;;;;;5.80;2.65;;;8.30;99.90;;;;;;5074345;28;20486;-82
2023/04/11 06:20:18;;;;;;;4.53;3.03;;;8.30;99.90;;;;;;5075565;28;20041;-80
2023/04/11 06:22:45;;;;;;;14.95;3.13;;;8.30;99.90;;;;;;5075604;28;20040;-82
2023/04/11 06:25:11;;;;;;;7.55;4.20;;;8.40;99.90;;;;;;5076042;28;20070;-85
2023/04/11 06:27:37;;;;;;;5.28;2.60;;;8.40;99.90;;;;;;5075864;28;20123;-82
2023/04/11 06:30:03;;;;;;;8.38;3.58;;;8.50;99.90;;;;;;5075535;28;20392;-82
2023/04/11 06:32:28;;;;;;;7.10;3.60;;;8.50;99.90;;;;;;5074108;28;20052;-81
2023/04/11 06:34:54;;;;;;;5.63;2.80;;;8.60;99.90;;;;;;5075329;28;20040;-80
2023/04/11 06:37:21;;;;;;;13.68;3.97;;;8.50;99.90;;;;;;5075640;28;20044;-81
2023/04/11 06:39:47;;;;;;;10.60;3.58;;;8.60;99.90;;;;;;5091253;28;20043;-80
2023/04/11 06:42:13;;;;;;;13.35;4.20;;;8.70;99.90;;;;;;5075539;28;20470;-83
2023/04/11 06:44:38;;;;;;;9.90;3.85;;;8.80;99.90;;;;;;5075198;28;20141;-81
2023/04/11 06:47:04;;;;;;;7.55;3.63;;;8.80;99.90;;;;;;5075204;28;20070;-80
2023/04/11 06:49:31;;;;;;;8.32;3.35;;;8.70;99.90;;;;;;5074944;28;20048;-80
2023/04/11 06:51:58;;;;;;;9.20;3.47;;;8.80;99.90;;;;;;5075075;28;20053;-81
2023/04/11 06:54:24;;;;;;;9.48;3.20;;;8.80;99.90;;;;;;5075144;28;20040;-79
2023/04/11 06:56:50;;;;;;;8.90;3.85;;;8.80;99.90;;;;;;5092734;28;20048;-79
2023/04/11 06:59:18;;;;;;;6.93;3.15;;;8.80;99.90;;;;;;5077850;28;20059;-83
2023/04/11 07:01:44;;;;;;;11.20;3.88;;;8.90;99.90;;;;;;5074799;28;20121;-79
2023/04/11 07:04:10;;;;;;;9.60;4.18;;;8.90;99.90;;;;;;5074569;28;20475;-80
2023/04/11 07:06:35;;;;;;;10.05;3.83;;;9.00;99.90;;;;;;5075042;28;20055;-78
2023/04/11 07:09:05;;;;;;;6.07;3.58;;;9.20;99.90;;;;;;5073605;28;20093;-80
2023/04/11 07:11:31;;;;;;;6.10;2.60;;;9.10;99.90;;;;;;5074520;28;20087;-81
2023/04/11 07:14:01;;;;;;;3.60;2.10;;;8.80;99.90;;;;;;5074396;28;20209;-78
2023/04/11 07:16:27;;;;;;;4.85;2.50;;;9.40;99.90;;;;;;5074635;28;20094;-79
2023/04/11 07:18:54;;;;;;;6.68;2.80;;;8.30;99.90;;;;;;5074308;28;20040;-79
2023/04/11 07:21:20;;;;;;;6.35;3.05;;;8.20;99.90;;;;;;5074734;28;20125;-80
2023/04/11 07:23:46;;;;;;;6.40;3.97;;;8.20;99.90;;;;;;5074290;28;20554;-80
2023/04/11 07:26:13;;;;;;;7.57;3.63;;;8.20;99.90;;;;;;5074651;28;20466;-78
2023/04/11 07:28:40;;;;;;;7.45;3.60;;;8.30;99.90;;;;;;5074264;28;20072;-79
2023/04/11 07:31:12;;;;;;;5.43;3.25;;;8.50;99.90;;;;;;5072909;28;20055;-80
2023/04/11 07:33:38;;;;;;;8.97;3.80;;;8.60;99.90;;;;;;5072970;28;20102;-80
2023/04/11 07:36:05;;;;;;;12.05;4.78;;;8.80;99.90;;;;;;5074332;28;20044;-78
2023/04/11 07:38:32;;;;;;;10.05;3.85;;;9.10;99.90;;;;;;5074306;28;20048;-79
2023/04/11 07:41:02;;;;;;;7.28;3.83;;;9.30;99.90;;;;;;5076118;28;20126;-79
2023/04/11 07:43:28;;;;;;;10.60;3.50;;;9.40;99.90;;;;;;5078236;28;20037;-79
2023/04/11 07:45:56;;;;;;;10.10;3.30;;;9.60;99.90;;;;;;5077239;28;20067;-78
2023/04/11 07:48:23;;;;;;;7.32;3.75;;;9.50;99.90;;;;;;5075983;28;20063;-79
2023/04/11 07:50:49;;;;;;;8.40;3.15;;;9.30;99.90;;;;;;5076457;28;20466;-78
2023/04/11 07:53:15;;;;;;;9.23;3.78;;;9.40;99.90;;;;;;5074375;28;20040;-79
2023/04/11 07:55:40;;;;;;;7.40;3.83;;;9.60;99.90;;;;;;5074178;28;20048;-80
2023/04/11 07:58:06;;;;;;;11.70;3.22;;;10.10;99.90;;;;;;5074279;28;20047;-78
2023/04/11 08:00:33;;;;;;;13.57;3.45;;;10.70;99.90;;;;;;5073759;28;20135;-78
2023/04/11 08:03:03;;;;;;;7.90;3.15;;;10.80;99.90;;;;;;5074037;28;20040;-78
2023/04/11 08:05:33;;;;;;;5.05;2.92;;;10.80;99.90;;;;;;5073337;28;20106;-79
2023/04/11 08:07:59;;;;;;;7.32;2.75;;;10.60;99.90;;;;;;5073064;28;20083;-79
2023/04/11 08:10:24;;;;;;;10.02;3.28;;;10.30;99.90;;;;;;5089156;28;20086;-77
2023/04/11 08:12:50;;;;;;;6.00;3.30;;;10.30;99.90;;;;;;5089365;28;20186;-77
2023/04/11 08:15:17;;;;;;;8.20;2.80;;;10.40;99.90;;;;;;5073762;28;20052;-77
2023/04/11 08:17:44;;;;;;;8.48;2.78;;;10.50;99.90;;;;;;5072925;28;20368;-78
2023/04/11 08:20:10;;;;;;;5.43;2.95;;;10.70;99.90;;;;;;5072924;28;20499;-78
2023/04/11 08:22:38;;;;;;;4.85;2.22;;;11.10;99.90;;;;;;5071889;28;20185;-77
2023/04/11 08:25:05;;;;;;;7.47;2.70;;;11.30;99.90;;;;;;5072673;28;20048;-77
2023/04/11 08:27:31;;;;;;;6.10;2.25;;;11.50;99.90;;;;;;5072422;28;20087;-75
2023/04/11 08:29:58;;;;;;;8.05;2.92;;;12.10;99.90;;;;;;5073323;28;20090;-74
2023/04/11 08:32:23;;;;;;;11.20;3.03;;;12.40;99.90;;;;;;5071831;28;20124;-79
2023/04/11 08:34:49;;;;;;;8.45;2.47;;;12.90;99.90;;;;;;5071972;28;20080;-77
2023/04/11 08:37:15;;;;;;;10.45;2.50;;;13.10;99.90;;;;;;5072865;28;20055;-78
2023/04/11 08:39:41;;;;;;;6.20;2.22;;;13.30;99.90;;;;;;5072242;28;20075;-78
2023/04/11 08:42:06;;;;;;;10.40;3.13;;;13.00;99.90;;;;;;5072942;28;20070;-79
2023/04/11 08:44:32;;;;;;;7.10;2.72;;;13.00;99.90;;;;;;5071712;28;20043;-80
2023/04/11 08:46:58;;;;;;;8.38;2.25;;;13.30;99.90;;;;;;5071581;28;20052;-79
2023/04/11 08:49:24;;;;;;;6.80;2.28;;;13.90;99.90;;;;;;5071597;28;20044;-78
2023/04/11 08:51:52;;;;;;;4.93;2.40;;;14.70;99.90;;;;;;5072715;28;20048;-78
2023/04/11 08:54:18;;;;;;;5.28;1.80;;;15.20;99.90;;;;;;5072692;28;20517;-78
2023/04/11 08:56:44;;;;;;;3.85;1.92;;;15.70;99.90;;;;;;5072586;28;20145;-78
2023/04/11 08:59:10;;;;;;;8.20;2.50;;;15.50;99.90;;;;;;5072647;28;20048;-79
2023/04/11 09:01:36;;;;;;;4.03;1.52;;;15.10;99.90;;;;;;5073087;28;20051;-80
2023/04/11 09:04:04;;;;;;;7.20;1.90;;;14.80;99.30;;;;;;5073126;28;20178;-79
2023/04/11 09:06:31;;;;;;;5.38;1.77;;;15.30;99.90;;;;;;5072658;28;20089;-81
2023/04/11 09:09:04;;;;;;;2.70;1.58;;;14.30;98.20;;;;;;5071429;28;20044;-79
2023/04/11 09:11:30;;;;;;;2.92;1.92;;;13.40;98.40;;;;;;5072467;28;20045;-79
2023/04/11 09:14:09;;;;;;;4.18;1.70;;;12.70;99.90;;;;;;5070613;28;20045;-80
2023/04/11 09:16:36;;;;;;;5.18;2.00;;;12.50;99.80;;;;;;5071697;28;20076;-80
2023/04/11 09:19:02;;;;;;;7.32;2.10;;;12.90;99.90;;;;;;5070924;28;20119;-80
2023/04/11 09:21:28;;;;;;;2.63;1.50;;;12.90;99.90;;;;;;5071920;28;20115;-83
2023/04/11 09:24:14;;;;;;;3.30;1.27;;;12.10;99.90;;;;;;5071733;28;20048;-86
2023/04/11 09:26:40;;;;;;;2.83;1.10;;;11.40;99.90;;;;;;5072649;28;20052;-86
2023/04/11 09:29:06;;;;;;;3.47;1.83;;;10.90;99.90;;;;;;5087492;28;20064;-79
2023/04/11 09:31:43;;;;;;;3.10;1.38;;;11.10;99.90;;;;;;5072589;28;20086;-79
2023/04/11 09:34:09;;;;;;;3.47;1.45;;;11.10;99.90;;;;;;5072028;28;20041;-78
2023/04/11 09:36:35;;;;;;;2.70;1.30;;;10.60;99.90;;;;;;5074871;28;20055;-79
2023/04/11 09:39:18;;;;;;;2.70;1.33;;;10.40;99.90;;;;;;5075333;28;20052;-79
2023/04/11 09:41:43;;;;;;;9.83;1.60;;;10.30;99.90;;;;;;5075065;28;20040;-77
2023/04/11 09:44:09;;;;;;;6.55;2.17;;;10.10;99.90;;;;;;5076117;28;20067;-77
2023/04/11 09:46:36;;;;;;;8.25;2.22;;;10.20;99.90;;;;;;5091912;28;20075;-78
2023/04/11 09:49:02;;;;;;;3.90;2.15;;;10.80;99.90;;;;;;5075229;28;20044;-79
2023/04/11 09:51:28;;;;;;;6.20;2.42;;;11.80;99.90;;;;;;5074969;28;20088;-76
2023/04/11 09:53:55;;;;;;;5.13;1.70;;;12.60;99.90;;;;;;5075164;28;20048;-77
2023/04/11 09:56:22;;;;;;;7.30;2.20;;;13.50;99.90;;;;;;5075909;28;20141;-76
2023/04/11 09:58:49;;;;;;;6.05;2.08;;;13.70;99.90;;;;;;5075229;28;20052;-79
2023/04/11 10:01:17;;;;;;;4.68;1.48;;;13.50;99.90;;;;;;5075716;28;20094;-80
2023/04/11 10:03:46;;;;;;;5.80;2.17;;;14.00;99.90;;;;;;5074686;28;20049;-77
2023/04/11 10:06:30;;;;;;;8.73;2.25;;;14.20;99.90;;;;;;5074964;28;20057;-79
2023/04/11 10:09:07;;;;;;;4.63;1.48;;;14.10;99.90;;;;;;5075018;28;20056;-78
2023/04/11 10:11:33;;;;;;;5.05;2.00;;;12.90;99.90;;;;;;5076100;28;20052;-80
2023/04/11 10:13:58;;;;;;;4.13;1.45;;;13.20;99.90;;;;;;5075987;28;20448;-79
2023/04/11 10:16:25;;;;;;;3.70;1.95;;;14.00;99.90;;;;;;5074432;28;20091;-80
2023/04/11 10:18:51;;;;;;;6.38;2.05;;;14.90;99.90;;;;;;5076094;28;20052;-78
2023/04/11 10:21:29;;;;;;;7.30;2.20;;;14.90;99.90;;;;;;5074491;28;20071;-87
2023/04/11 10:24:13;;;;;;;6.25;2.13;;;15.50;99.30;;;;;;5074917;28;20041;-86
2023/04/11 10:27:03;;;;;;;4.53;1.33;;;16.10;97.20;;;;;;5074703;28;20056;-83
2023/04/11 10:29:31;;;;;;;6.88;2.00;;;16.00;95.30;;;;;;5075766;28;20056;-83
2023/04/11 10:32:12;;;;;;;6.00;2.00;;;15.00;97.00;;;;;;5091102;28;20135;-82
2023/04/11 10:34:59;;;;;;;3.70;2.03;;;14.30;99.10;;;;;;5074433;28;20052;-85
2023/04/11 10:37:34;;;;;;;3.67;1.60;;;14.40;99.70;;;;;;5073864;28;20048;-82
2023/04/11 10:40:08;;;;;;;6.03;1.63;;;15.10;95.30;;;;;;5074789;28;20045;-85
2023/04/11 10:42:40;;;;;;;6.53;2.10;;;15.20;96.60;;;;;;5075056;28;20123;-86
2023/04/11 10:45:29;;;;;;;0.68;0.57;;;14.60;99.30;;;;;;5074543;28;20056;-78
2023/04/11 10:48:00;;;;;;;2.03;0.50;;;12.80;99.90;;;;;;5075107;28;20143;-78
2023/04/11 10:50:26;;;;;;;0.82;0.60;;;11.80;99.90;;;;;;5090668;28;20052;-76
2023/04/11 10:53:03;;;;;;;2.00;0.80;;;10.70;99.90;;;;;;5074877;28;20485;-80
2023/04/11 10:55:41;;;;;;;1.65;0.90;;;10.20;99.90;;;;;;5074998;28;20044;-79
2023/04/11 10:58:18;;;;;;;2.22;1.50;;;9.80;99.90;;;;;;5073938;28;20080;-77
2023/04/11 11:00:53;;;;;;;2.45;1.40;;;9.50;99.90;;;;;;5074293;28;20048;-79
2023/04/11 11:03:31;;;;;;;8.32;1.75;;;9.30;99.90;;;;;;5075024;28;20170;-78
2023/04/11 11:06:01;;;;;;;3.50;1.40;;;9.20;99.90;;;;;;5075058;28;20084;-78
2023/04/11 11:08:36;;;;;;;4.15;1.50;;;9.10;99.90;;;;;;5074803;28;20128;-79
2023/04/11 11:11:07;;;;;;;5.05;2.15;;;9.20;99.90;;;;;;5074902;28;20048;-78
2023/04/11 11:13:50;;;;;;;3.83;2.00;;;9.30;99.90;;;;;;5075279;28;20055;-79
2023/04/11 11:16:20;;;;;;;2.70;1.48;;;9.10;99.90;;;;;;5074800;28;20044;-76
2023/04/11 11:18:48;;;;;;;4.53;1.90;;;9.00;99.90;;;;;;5074716;28;20044;-78
2023/04/11 11:21:18;;;;;;;6.47;1.63;;;8.90;99.90;;;;;;5073985;28;20166;-78
2023/04/11 11:24:01;;;;;;;2.83;1.50;;;8.70;99.90;;;;;;5089636;28;20366;-79
2023/04/11 11:26:40;;;;;;;2.97;1.40;;;8.50;99.90;;;;;;5074600;28;20040;-78
2023/04/11 11:29:07;;;;;;;2.78;1.60;;;8.30;99.90;;;;;;5073479;28;20052;-78
2023/04/11 11:31:44;;;;;;;3.92;1.50;;;8.30;99.90;;;;;;5073362;28;20148;-80
2023/04/11 11:34:10;;;;;;;5.15;2.28;;;8.20;99.90;;;;;;5073938;28;20049;-81
2023/04/11 11:36:43;;;;;;;4.65;1.73;;;8.20;99.90;;;;;;5074430;28;20064;-76
2023/04/11 11:39:10;;;;;;;5.05;1.85;;;8.10;99.90;;;;;;5073923;28;20048;-78
2023/04/11 11:41:36;;;;;;;3.38;1.85;;;8.10;99.90;;;;;;5074564;28;20056;-79
2023/04/11 11:44:03;;;;;;;7.53;2.35;;;8.30;99.90;;;;;;5074100;28;20040;-77
2023/04/11 11:46:32;;;;;;;4.20;1.98;;;8.60;99.90;;;;;;5073936;28;20071;-77
2023/04/11 11:49:07;;;;;;;5.82;1.83;;;9.00;99.90;;;;;;5074369;28;20098;-83
2023/04/11 11:51:45;;;;;;;2.30;2.10;;;9.30;99.90;;;;;;5073290;28;20053;-78
2023/04/11 11:54:11;;;;;;;3.20;1.90;;;9.30;99.90;;;;;;5073956;28;20515;-79
2023/04/11 11:56:38;;;;;;;5.13;2.00;;;9.20;99.90;;;;;;5073054;28;20052;-79
2023/04/11 11:59:04;;;;;;;11.48;2.58;;;8.90;99.90;;;;;;5073373;28;20048;-78
2023/04/11 12:01:34;;;;;;;4.20;2.17;;;8.80;99.90;;;;;;5073807;28;20048;-78
2023/04/11 12:04:00;;;;;;;7.00;2.25;;;8.60;99.90;;;;;;5073569;28;20056;-77
2023/04/11 12:06:30;;;;;;;7.72;2.85;;;8.50;99.90;;;;;;5073387;28;20056;-77
2023/04/11 12:09:09;;;;;;;7.38;2.60;;;8.40;99.90;;;;;;5073386;28;20485;-78
2023/04/11 12:11:39;;;;;;;8.10;3.03;;;8.40;99.90;;;;;;5073508;28;20044;-79
2023/04/11 12:14:06;;;;;;;5.32;2.58;;;8.60;99.90;;;;;;5073497;28;20055;-83
2023/04/11 12:16:32;;;;;;;8.85;2.70;;;8.80;99.90;;;;;;5073262;28;20408;-79
2023/04/11 12:18:59;;;;;;;4.72;3.17;;;9.00;99.90;;;;;;5073738;28;20052;-80
2023/04/11 12:21:25;;;;;;;6.93;3.03;;;9.20;99.90;;;;;;5073270;28;20052;-79
2023/04/11 12:23:51;;;;;;;8.82;3.67;;;9.50;99.90;;;;;;5072656;28;20076;-80
2023/04/11 12:26:18;;;;;;;7.55;2.78;;;9.70;99.90;;;;;;5073390;28;20097;-79
2023/04/11 12:28:44;;;;;;;7.45;3.30;;;10.10;99.90;;;;;;5073193;28;20048;-81
2023/04/11 12:31:11;;;;;;;8.95;3.55;;;10.40;99.90;;;;;;5073628;28;20522;-81
2023/04/11 12:33:37;;;;;;;6.93;3.50;;;10.70;99.90;;;;;;5072288;28;20095;-81
2023/04/11 12:36:06;;;;;;;5.85;2.63;;;11.00;99.90;;;;;;5072353;28;20053;-79
2023/04/11 12:38:32;;;;;;;8.40;3.13;;;11.30;99.90;;;;;;5073338;28;20059;-80
2023/04/11 12:40:58;;;;;;;5.18;2.80;;;11.20;99.90;;;;;;5073120;28;20041;-79
2023/04/11 12:43:24;;;;;;;9.50;2.83;;;11.30;99.90;;;;;;5072769;28;20048;-83
2023/04/11 12:45:49;;;;;;;6.63;2.97;;;11.20;99.90;;;;;;5073568;28;20151;-86
2023/04/11 12:48:15;;;;;;;7.32;3.08;;;11.20;99.90;;;;;;5072060;28;20485;-84
2023/04/11 12:50:41;;;;;;;11.20;3.75;;;11.30;99.90;;;;;;5072930;28;20055;-85
2023/04/11 12:53:06;;;;;;;4.70;2.40;;;11.30;99.90;;;;;;5072672;28;20128;-85
2023/04/11 12:55:32;;;;;;;6.47;2.83;;;11.30;99.90;;;;;;5072803;28;20080;-85